Aérodrome :
LOGIN :

S'inscrire | Disclaimer

   EN    FR    IT 

 










Légende :    VFR   VFR Marginal   IFR   IFR Intensif   IFR Très Intensif
Visi : 
Plafond : 
>= 8 km
>= 3000ft
5 à 8 km
1000 à 3000 ft
1500m à 5 km
500 à 1000 ft
800 à 1500m
200 à 500 ft
< 800m
< 200 ft
Symboles :   Orages  Brouillard  Fortes neiges  Fortes précipitations  Vent > 20 kt
SIGMETs :   Divers  Orages  Givrage  Turbulence  Onde Orograph.  Cendres Volcan.






- Altitude de l'aérodrome : 776 ft
- Code IATA : RMS


ETAR - Ramstein Air Base

DERNIER METAR :
  • 071307Z AUTO 24008KT 9999 -DZ FEW015 SCT022 BKN027 OVC031 08/08 A3001 RMK AO2 DZB07 CIG 025V032 SLP170 $

METARs EXPIRÉS :
  • 071256Z AUTO 24010KT 9999 FEW015 SCT022 BKN032 OVC041 08/08 A3001 RMK AO2 RAB42E51 SLP171 P0000 T00830083 $
  • 071253Z AUTO 24007KT 9999 FEW015 SCT020 SCT025 BKN032 OVC041 08/08 A3001 RMK AO2 RAB42E51 SLP170 $
  • 071233Z AUTO 24007KT 9999 FEW016 BKN038 BKN048 09/09 A3001 RMK AO2 SLP170 $
  • 071203Z AUTO 23007KT 9999 SCT016 BKN022 BKN027 BKN040 09/09 A3001 RMK AO2 CIG 017V022 SLP170 $
  • 071156Z AUTO 23010KT 9999 BKN017 BKN022 BKN043 09/09 A3001 RMK AO2 CIG 017V042 SLP170 60000 70025 T00870087 10087 20074 50008 $
  • 071056Z 24010G15KT 9999 BKN037 08/08 A3001 RMK AO2A RAB0957E28RAB32E41 SLP171 P0000 T00830083 $
  • 071041Z 24009KT 9999 BKN035 08/08 A3001 RMK AO2A RAB0957E28RAB32E41 SLP171 $
  • 071032Z 24008KT 9999 -RA BKN035 08/08 A3001 RMK AO2A RAB0957E28RAB32 SLP171 $

TAF AMD TAF ETAR
Valide du 07 à 12h jusqu'au 08 à 16h UTC


071242Z 0712/0816 23012G18KT 9000 -SHRA BKN040 QNH3001INS
BECMG 0717/0718 24010G20KT 9999 NSW BKN015 BKN030 QNH3004INS
BECMG 0802/0803 22015G25KT 9000 -SHRA OVC010 520004 QNH2998INS
BECMG 0807/0808 22020G30KT 8000 -SHRA OVC015 520004 QNH2981INS
TEMPO 0810/0814 22025G35KT 530004
BECMG 0815/0816 25015G25KT 9000 -SHRA BKN015 520004 QNH2970INS TX09/0714Z TN06/0805Z



MET'MAP, la Météo Aéronautique d'un coup d'oeil ! - Copyright ORBIFLY Décembre 2007 - Disclaimer

ORBIFLY MET'MAP TEAM :

Programmation & Développement : Alexandra Zaïnal
Sur une idée originale de : Baudouin d'Aumeries
Assistance à la programmation : Marc-Olivier Méhu
Soutien technique & logistique : Manuel Goepfert

Contact : metmap@orbifly.com




SOURCES & CREDITS :

   NOAA